sensor_id;sensor_type;location;lat;lon;timestamp;temperature;humidity
56308;DHT22;42217;50.422;7.210;2023-03-14T00:01:30;9.70;99.90
56308;DHT22;42217;50.422;7.210;2023-03-14T00:03:56;9.70;99.90
56308;DHT22;42217;50.422;7.210;2023-03-14T00:06:22;9.90;99.90
56308;DHT22;42217;50.422;7.210;2023-03-14T00:08:48;9.80;99.90
56308;DHT22;42217;50.422;7.210;2023-03-14T00:11:16;9.80;99.90
56308;DHT22;42217;50.422;7.210;2023-03-14T00:13:42;9.70;99.90
56308;DHT22;42217;50.422;7.210;2023-03-14T00:16:11;9.70;99.90
56308;DHT22;42217;50.422;7.210;2023-03-14T00:18:37;9.60;99.90
56308;DHT22;42217;50.422;7.210;2023-03-14T00:21:05;9.60;99.90
56308;DHT22;42217;50.422;7.210;2023-03-14T00:23:33;9.60;99.90
56308;DHT22;42217;50.422;7.210;2023-03-14T00:26:04;9.50;99.90
56308;DHT22;42217;50.422;7.210;2023-03-14T00:28:30;9.50;99.90
56308;DHT22;42217;50.422;7.210;2023-03-14T00:30:56;9.40;99.90
56308;DHT22;42217;50.422;7.210;2023-03-14T00:33:22;9.60;99.90
56308;DHT22;42217;50.422;7.210;2023-03-14T00:35:56;9.70;99.90
56308;DHT22;42217;50.422;7.210;2023-03-14T00:38:22;9.60;99.90
56308;DHT22;42217;50.422;7.210;2023-03-14T00:40:47;9.50;99.90
56308;DHT22;42217;50.422;7.210;2023-03-14T00:43:13;9.40;99.90
56308;DHT22;42217;50.422;7.210;2023-03-14T00:45:39;9.40;99.90
56308;DHT22;42217;50.422;7.210;2023-03-14T00:48:04;9.50;99.90
56308;DHT22;42217;50.422;7.210;2023-03-14T00:50:30;9.40;99.90
56308;DHT22;42217;50.422;7.210;2023-03-14T00:52:56;9.40;99.90
56308;DHT22;42217;50.422;7.210;2023-03-14T00:55:22;9.20;99.90
56308;DHT22;42217;50.422;7.210;2023-03-14T00:57:47;9.20;99.90
56308;DHT22;42217;50.422;7.210;2023-03-14T01:00:13;9.10;99.90
56308;DHT22;42217;50.422;7.210;2023-03-14T01:02:39;9.00;99.90
56308;DHT22;42217;50.422;7.210;2023-03-14T01:05:05;9.00;99.90
56308;DHT22;42217;50.422;7.210;2023-03-14T01:07:31;9.00;99.90
56308;DHT22;42217;50.422;7.210;2023-03-14T01:09:56;9.00;99.90
56308;DHT22;42217;50.422;7.210;2023-03-14T01:12:22;9.00;99.90
56308;DHT22;42217;50.422;7.210;2023-03-14T01:14:48;9.00;99.90
56308;DHT22;42217;50.422;7.210;2023-03-14T01:17:13;9.00;99.90
56308;DHT22;42217;50.422;7.210;2023-03-14T01:19:39;8.90;99.90
56308;DHT22;42217;50.422;7.210;2023-03-14T01:22:05;8.80;99.90
56308;DHT22;42217;50.422;7.210;2023-03-14T01:24:31;8.70;99.90
56308;DHT22;42217;50.422;7.210;2023-03-14T01:26:57;8.60;99.90
56308;DHT22;42217;50.422;7.210;2023-03-14T01:29:22;8.70;99.90
56308;DHT22;42217;50.422;7.210;2023-03-14T01:31:48;8.80;99.90
56308;DHT22;42217;50.422;7.210;2023-03-14T01:34:13;8.80;99.90
56308;DHT22;42217;50.422;7.210;2023-03-14T01:36:39;8.80;99.90
56308;DHT22;42217;50.422;7.210;2023-03-14T01:39:05;8.70;99.90
56308;DHT22;42217;50.422;7.210;2023-03-14T01:41:32;8.80;99.90
56308;DHT22;42217;50.422;7.210;2023-03-14T01:43:58;8.80;99.90
56308;DHT22;42217;50.422;7.210;2023-03-14T01:46:44;8.90;99.90
56308;DHT22;42217;50.422;7.210;2023-03-14T01:49:21;8.90;99.90
56308;DHT22;42217;50.422;7.210;2023-03-14T01:52:03;9.00;99.90
56308;DHT22;42217;50.422;7.210;2023-03-14T01:54:40;9.10;99.90
56308;DHT22;42217;50.422;7.210;2023-03-14T01:59:40;9.00;99.90
56308;DHT22;42217;50.422;7.210;2023-03-14T02:02:09;8.90;99.90
56308;DHT22;42217;50.422;7.210;2023-03-14T02:04:37;8.80;99.90
56308;DHT22;42217;50.422;7.210;2023-03-14T02:07:22;8.80;99.90
56308;DHT22;42217;50.422;7.210;2023-03-14T02:09:50;8.70;99.90
56308;DHT22;42217;50.422;7.210;2023-03-14T02:12:18;8.70;99.90
56308;DHT22;42217;50.422;7.210;2023-03-14T02:14:44;8.60;99.90
56308;DHT22;42217;50.422;7.210;2023-03-14T02:17:14;8.70;99.90
56308;DHT22;42217;50.422;7.210;2023-03-14T02:22:13;8.80;99.90
56308;DHT22;42217;50.422;7.210;2023-03-14T02:24:48;8.80;99.90
56308;DHT22;42217;50.422;7.210;2023-03-14T02:27:17;8.80;99.90
56308;DHT22;42217;50.422;7.210;2023-03-14T02:30:00;8.80;99.90
56308;DHT22;42217;50.422;7.210;2023-03-14T02:32:30;8.90;99.90
56308;DHT22;42217;50.422;7.210;2023-03-14T02:34:58;8.80;99.90
56308;DHT22;42217;50.422;7.210;2023-03-14T02:37:36;8.80;99.90
56308;DHT22;42217;50.422;7.210;2023-03-14T02:40:02;8.70;99.90
56308;DHT22;42217;50.422;7.210;2023-03-14T02:42:30;8.60;99.90
56308;DHT22;42217;50.422;7.210;2023-03-14T02:47:51;8.70;99.90
56308;DHT22;42217;50.422;7.210;2023-03-14T02:50:23;8.60;99.90
56308;DHT22;42217;50.422;7.210;2023-03-14T02:52:50;8.60;99.90
56308;DHT22;42217;50.422;7.210;2023-03-14T02:55:21;8.60;99.90
56308;DHT22;42217;50.422;7.210;2023-03-14T02:57:46;8.70;99.90
56308;DHT22;42217;50.422;7.210;2023-03-14T03:00:12;8.60;99.90
56308;DHT22;42217;50.422;7.210;2023-03-14T03:02:38;8.50;99.90
56308;DHT22;42217;50.422;7.210;2023-03-14T03:05:04;8.50;99.90
56308;DHT22;42217;50.422;7.210;2023-03-14T03:07:30;8.40;99.90
56308;DHT22;42217;50.422;7.210;2023-03-14T03:09:56;8.40;99.90
56308;DHT22;42217;50.422;7.210;2023-03-14T03:12:22;8.40;99.90
56308;DHT22;42217;50.422;7.210;2023-03-14T03:14:47;8.40;99.90
56308;DHT22;42217;50.422;7.210;2023-03-14T03:17:13;8.50;99.90
56308;DHT22;42217;50.422;7.210;2023-03-14T03:19:39;8.50;99.90
56308;DHT22;42217;50.422;7.210;2023-03-14T03:22:04;8.50;99.90
56308;DHT22;42217;50.422;7.210;2023-03-14T03:24:30;8.50;99.90
56308;DHT22;42217;50.422;7.210;2023-03-14T03:26:56;8.50;99.90
56308;DHT22;42217;50.422;7.210;2023-03-14T03:29:21;8.70;99.90
56308;DHT22;42217;50.422;7.210;2023-03-14T03:31:47;8.80;99.90
56308;DHT22;42217;50.422;7.210;2023-03-14T03:34:13;8.80;99.90
56308;DHT22;42217;50.422;7.210;2023-03-14T03:36:39;8.90;99.90
56308;DHT22;42217;50.422;7.210;2023-03-14T03:39:05;8.80;99.90
56308;DHT22;42217;50.422;7.210;2023-03-14T03:41:31;8.90;99.90
56308;DHT22;42217;50.422;7.210;2023-03-14T03:43:57;8.80;99.90
56308;DHT22;42217;50.422;7.210;2023-03-14T03:46:23;8.90;99.90
56308;DHT22;42217;50.422;7.210;2023-03-14T03:48:57;8.90;99.90
56308;DHT22;42217;50.422;7.210;2023-03-14T03:51:24;8.90;99.90
56308;DHT22;42217;50.422;7.210;2023-03-14T03:53:50;8.80;99.90
56308;DHT22;42217;50.422;7.210;2023-03-14T03:56:16;8.80;99.90
56308;DHT22;42217;50.422;7.210;2023-03-14T03:58:42;8.80;99.90
56308;DHT22;42217;50.422;7.210;2023-03-14T04:01:09;8.80;99.90
56308;DHT22;42217;50.422;7.210;2023-03-14T04:03:35;8.90;99.90
56308;DHT22;42217;50.422;7.210;2023-03-14T04:06:03;8.90;99.90
56308;DHT22;42217;50.422;7.210;2023-03-14T04:08:30;8.90;99.90
56308;DHT22;42217;50.422;7.210;2023-03-14T04:11:00;8.90;99.90
56308;DHT22;42217;50.422;7.210;2023-03-14T04:13:27;8.90;99.90
56308;DHT22;42217;50.422;7.210;2023-03-14T04:15:54;8.90;99.90
56308;DHT22;42217;50.422;7.210;2023-03-14T04:18:20;8.90;99.90
56308;DHT22;42217;50.422;7.210;2023-03-14T04:20:51;8.80;99.90
56308;DHT22;42217;50.422;7.210;2023-03-14T04:23:17;8.80;99.90
56308;DHT22;42217;50.422;7.210;2023-03-14T04:25:43;8.90;99.90
56308;DHT22;42217;50.422;7.210;2023-03-14T04:28:09;8.80;99.90
56308;DHT22;42217;50.422;7.210;2023-03-14T04:30:34;9.00;99.90
56308;DHT22;42217;50.422;7.210;2023-03-14T04:33:00;9.00;99.90
56308;DHT22;42217;50.422;7.210;2023-03-14T04:35:34;8.90;99.90
56308;DHT22;42217;50.422;7.210;2023-03-14T04:37:59;8.90;99.90
56308;DHT22;42217;50.422;7.210;2023-03-14T04:40:25;9.10;99.90
56308;DHT22;42217;50.422;7.210;2023-03-14T04:42:51;8.90;99.90
56308;DHT22;42217;50.422;7.210;2023-03-14T04:45:17;8.80;99.90
56308;DHT22;42217;50.422;7.210;2023-03-14T04:47:43;8.80;99.90
56308;DHT22;42217;50.422;7.210;2023-03-14T04:50:09;8.90;99.90
56308;DHT22;42217;50.422;7.210;2023-03-14T04:52:35;8.90;99.90
56308;DHT22;42217;50.422;7.210;2023-03-14T04:55:01;8.90;99.90
56308;DHT22;42217;50.422;7.210;2023-03-14T04:57:27;9.00;99.90
56308;DHT22;42217;50.422;7.210;2023-03-14T04:59:52;8.90;99.90
56308;DHT22;42217;50.422;7.210;2023-03-14T05:02:18;8.80;99.90
56308;DHT22;42217;50.422;7.210;2023-03-14T05:04:44;8.70;99.90
56308;DHT22;42217;50.422;7.210;2023-03-14T05:07:10;8.60;99.90
56308;DHT22;42217;50.422;7.210;2023-03-14T05:09:35;8.50;99.90
56308;DHT22;42217;50.422;7.210;2023-03-14T05:12:01;8.40;99.90
56308;DHT22;42217;50.422;7.210;2023-03-14T05:14:27;8.40;99.90
56308;DHT22;42217;50.422;7.210;2023-03-14T05:16:53;8.30;99.90
56308;DHT22;42217;50.422;7.210;2023-03-14T05:19:18;8.40;99.90
56308;DHT22;42217;50.422;7.210;2023-03-14T05:21:44;8.20;99.90
56308;DHT22;42217;50.422;7.210;2023-03-14T05:24:09;8.20;99.90
56308;DHT22;42217;50.422;7.210;2023-03-14T05:26:35;8.30;99.90
56308;DHT22;42217;50.422;7.210;2023-03-14T05:29:01;8.30;99.90
56308;DHT22;42217;50.422;7.210;2023-03-14T05:31:26;8.20;99.90
56308;DHT22;42217;50.422;7.210;2023-03-14T05:33:52;8.20;99.90
56308;DHT22;42217;50.422;7.210;2023-03-14T05:36:18;8.30;99.90
56308;DHT22;42217;50.422;7.210;2023-03-14T05:38:43;8.30;99.90
56308;DHT22;42217;50.422;7.210;2023-03-14T05:41:09;8.30;99.90
56308;DHT22;42217;50.422;7.210;2023-03-14T05:43:35;8.30;99.90
56308;DHT22;42217;50.422;7.210;2023-03-14T05:46:00;8.40;99.90
56308;DHT22;42217;50.422;7.210;2023-03-14T05:48:26;8.30;99.90
56308;DHT22;42217;50.422;7.210;2023-03-14T05:50:56;8.20;99.90
56308;DHT22;42217;50.422;7.210;2023-03-14T05:53:22;8.20;99.90
56308;DHT22;42217;50.422;7.210;2023-03-14T05:55:52;8.20;99.90
56308;DHT22;42217;50.422;7.210;2023-03-14T05:58:17;8.30;99.90
56308;DHT22;42217;50.422;7.210;2023-03-14T06:00:43;8.30;99.90
56308;DHT22;42217;50.422;7.210;2023-03-14T06:03:08;8.40;99.90
56308;DHT22;42217;50.422;7.210;2023-03-14T06:05:34;8.30;99.90
56308;DHT22;42217;50.422;7.210;2023-03-14T06:08:00;8.30;99.90
56308;DHT22;42217;50.422;7.210;2023-03-14T06:10:25;8.30;99.90
56308;DHT22;42217;50.422;7.210;2023-03-14T06:12:51;8.30;99.90
56308;DHT22;42217;50.422;7.210;2023-03-14T06:15:17;8.20;99.90
56308;DHT22;42217;50.422;7.210;2023-03-14T06:17:42;8.20;99.90
56308;DHT22;42217;50.422;7.210;2023-03-14T06:20:09;8.20;99.90
56308;DHT22;42217;50.422;7.210;2023-03-14T06:22:34;8.20;99.90
56308;DHT22;42217;50.422;7.210;2023-03-14T06:25:00;8.10;99.90
56308;DHT22;42217;50.422;7.210;2023-03-14T06:27:26;8.00;99.90
56308;DHT22;42217;50.422;7.210;2023-03-14T06:29:51;8.00;99.90
56308;DHT22;42217;50.422;7.210;2023-03-14T06:32:17;7.90;99.90
56308;DHT22;42217;50.422;7.210;2023-03-14T06:34:43;7.90;99.90
56308;DHT22;42217;50.422;7.210;2023-03-14T06:37:09;8.00;99.90
56308;DHT22;42217;50.422;7.210;2023-03-14T06:39:35;8.00;99.90
56308;DHT22;42217;50.422;7.210;2023-03-14T06:42:00;8.10;99.90
56308;DHT22;42217;50.422;7.210;2023-03-14T06:44:26;8.10;99.90
56308;DHT22;42217;50.422;7.210;2023-03-14T06:46:52;8.00;99.90
56308;DHT22;42217;50.422;7.210;2023-03-14T06:49:17;8.00;99.90
56308;DHT22;42217;50.422;7.210;2023-03-14T06:51:43;8.10;99.90
56308;DHT22;42217;50.422;7.210;2023-03-14T06:54:09;8.20;99.90
56308;DHT22;42217;50.422;7.210;2023-03-14T06:56:34;8.30;99.90
56308;DHT22;42217;50.422;7.210;2023-03-14T06:59:00;8.50;99.90
56308;DHT22;42217;50.422;7.210;2023-03-14T07:01:28;8.70;99.90
56308;DHT22;42217;50.422;7.210;2023-03-14T07:03:55;8.90;99.90
56308;DHT22;42217;50.422;7.210;2023-03-14T07:06:21;9.20;99.90
56308;DHT22;42217;50.422;7.210;2023-03-14T07:08:47;9.40;99.90
56308;DHT22;42217;50.422;7.210;2023-03-14T07:11:13;9.40;99.90
56308;DHT22;42217;50.422;7.210;2023-03-14T07:13:39;9.60;99.90
56308;DHT22;42217;50.422;7.210;2023-03-14T07:16:06;9.60;99.90
56308;DHT22;42217;50.422;7.210;2023-03-14T07:18:32;9.70;99.90
56308;DHT22;42217;50.422;7.210;2023-03-14T07:20:57;9.80;99.90
56308;DHT22;42217;50.422;7.210;2023-03-14T07:23:23;9.80;99.90
56308;DHT22;42217;50.422;7.210;2023-03-14T07:25:49;9.60;99.90
56308;DHT22;42217;50.422;7.210;2023-03-14T07:28:16;9.60;99.90
56308;DHT22;42217;50.422;7.210;2023-03-14T07:30:42;9.50;99.90
56308;DHT22;42217;50.422;7.210;2023-03-14T07:33:08;9.40;99.90
56308;DHT22;42217;50.422;7.210;2023-03-14T07:35:33;9.40;99.90
56308;DHT22;42217;50.422;7.210;2023-03-14T07:37:59;9.40;99.90
56308;DHT22;42217;50.422;7.210;2023-03-14T07:40:25;9.40;99.90
56308;DHT22;42217;50.422;7.210;2023-03-14T07:42:50;9.30;99.90
56308;DHT22;42217;50.422;7.210;2023-03-14T07:45:20;9.20;99.90
56308;DHT22;42217;50.422;7.210;2023-03-14T07:47:46;9.20;99.90
56308;DHT22;42217;50.422;7.210;2023-03-14T07:50:12;9.20;99.90
56308;DHT22;42217;50.422;7.210;2023-03-14T07:52:37;9.40;99.90
56308;DHT22;42217;50.422;7.210;2023-03-14T07:55:03;9.40;99.90
56308;DHT22;42217;50.422;7.210;2023-03-14T07:57:29;9.50;99.90
56308;DHT22;42217;50.422;7.210;2023-03-14T07:59:55;9.50;99.90
56308;DHT22;42217;50.422;7.210;2023-03-14T08:02:20;9.60;99.90
56308;DHT22;42217;50.422;7.210;2023-03-14T08:04:48;9.70;99.90
56308;DHT22;42217;50.422;7.210;2023-03-14T08:07:14;9.90;99.90
56308;DHT22;42217;50.422;7.210;2023-03-14T08:09:40;10.00;99.90
56308;DHT22;42217;50.422;7.210;2023-03-14T08:12:06;10.10;99.90
56308;DHT22;42217;50.422;7.210;2023-03-14T08:14:31;10.20;99.90
56308;DHT22;42217;50.422;7.210;2023-03-14T08:16:57;10.50;99.90
56308;DHT22;42217;50.422;7.210;2023-03-14T08:19:23;10.60;99.90
56308;DHT22;42217;50.422;7.210;2023-03-14T08:21:50;10.80;99.90
56308;DHT22;42217;50.422;7.210;2023-03-14T08:24:16;11.00;99.90
56308;DHT22;42217;50.422;7.210;2023-03-14T08:26:42;11.20;99.90
56308;DHT22;42217;50.422;7.210;2023-03-14T08:29:07;11.30;99.90
56308;DHT22;42217;50.422;7.210;2023-03-14T08:31:34;11.50;99.90
56308;DHT22;42217;50.422;7.210;2023-03-14T08:34:00;11.50;99.90
56308;DHT22;42217;50.422;7.210;2023-03-14T08:36:27;11.50;99.90
56308;DHT22;42217;50.422;7.210;2023-03-14T08:38:53;11.40;99.90
56308;DHT22;42217;50.422;7.210;2023-03-14T08:41:18;11.30;99.90
56308;DHT22;42217;50.422;7.210;2023-03-14T08:43:44;11.30;99.90
56308;DHT22;42217;50.422;7.210;2023-03-14T08:46:10;11.20;99.90
56308;DHT22;42217;50.422;7.210;2023-03-14T08:48:37;11.20;99.90
56308;DHT22;42217;50.422;7.210;2023-03-14T08:51:09;11.20;99.90
56308;DHT22;42217;50.422;7.210;2023-03-14T08:53:36;11.20;99.90
56308;DHT22;42217;50.422;7.210;2023-03-14T08:56:02;11.20;99.90
56308;DHT22;42217;50.422;7.210;2023-03-14T08:58:29;11.20;99.90
56308;DHT22;42217;50.422;7.210;2023-03-14T09:00:55;11.30;99.90
56308;DHT22;42217;50.422;7.210;2023-03-14T09:03:21;11.50;99.90
56308;DHT22;42217;50.422;7.210;2023-03-14T09:05:49;11.60;99.90
56308;DHT22;42217;50.422;7.210;2023-03-14T09:08:14;11.70;99.90
56308;DHT22;42217;50.422;7.210;2023-03-14T09:10:43;11.90;99.90
56308;DHT22;42217;50.422;7.210;2023-03-14T09:13:10;11.80;99.90
56308;DHT22;42217;50.422;7.210;2023-03-14T09:15:36;11.90;99.90
56308;DHT22;42217;50.422;7.210;2023-03-14T09:18:04;11.90;99.90
56308;DHT22;42217;50.422;7.210;2023-03-14T09:20:30;11.90;99.90
56308;DHT22;42217;50.422;7.210;2023-03-14T09:22:56;12.10;99.90
56308;DHT22;42217;50.422;7.210;2023-03-14T09:25:22;12.00;99.90
56308;DHT22;42217;50.422;7.210;2023-03-14T09:27:49;12.10;99.90
56308;DHT22;42217;50.422;7.210;2023-03-14T09:30:21;12.10;99.90
56308;DHT22;42217;50.422;7.210;2023-03-14T09:32:47;12.00;99.90
56308;DHT22;42217;50.422;7.210;2023-03-14T09:35:13;11.90;99.90
56308;DHT22;42217;50.422;7.210;2023-03-14T09:37:39;12.10;99.90
56308;DHT22;42217;50.422;7.210;2023-03-14T09:40:05;12.30;99.90
56308;DHT22;42217;50.422;7.210;2023-03-14T09:42:37;12.60;99.90
56308;DHT22;42217;50.422;7.210;2023-03-14T09:45:10;12.60;99.90
56308;DHT22;42217;50.422;7.210;2023-03-14T09:47:40;12.60;99.90
56308;DHT22;42217;50.422;7.210;2023-03-14T09:50:13;12.50;99.90
56308;DHT22;42217;50.422;7.210;2023-03-14T09:52:59;12.00;99.90
56308;DHT22;42217;50.422;7.210;2023-03-14T09:55:27;11.80;99.90
56308;DHT22;42217;50.422;7.210;2023-03-14T09:58:03;11.80;99.90
56308;DHT22;42217;50.422;7.210;2023-03-14T10:00:33;11.60;99.90
56308;DHT22;42217;50.422;7.210;2023-03-14T10:05:42;11.20;99.90
56308;DHT22;42217;50.422;7.210;2023-03-14T10:08:12;10.90;99.90
56308;DHT22;42217;50.422;7.210;2023-03-14T10:10:38;10.70;99.90
56308;DHT22;42217;50.422;7.210;2023-03-14T10:16:02;10.30;99.90
56308;DHT22;42217;50.422;7.210;2023-03-14T10:18:31;10.00;99.90
56308;DHT22;42217;50.422;7.210;2023-03-14T10:23:33;9.60;99.90
56308;DHT22;42217;50.422;7.210;2023-03-14T10:26:16;9.40;99.90
56308;DHT22;42217;50.422;7.210;2023-03-14T10:28:53;9.10;99.90
56308;DHT22;42217;50.422;7.210;2023-03-14T10:31:19;8.70;99.90
56308;DHT22;42217;50.422;7.210;2023-03-14T10:34:04;8.30;99.90
56308;DHT22;42217;50.422;7.210;2023-03-14T10:36:33;8.20;99.90
56308;DHT22;42217;50.422;7.210;2023-03-14T10:39:26;8.10;99.90
56308;DHT22;42217;50.422;7.210;2023-03-14T10:42:04;8.20;99.90
56308;DHT22;42217;50.422;7.210;2023-03-14T10:44:31;8.30;99.90
56308;DHT22;42217;50.422;7.210;2023-03-14T10:47:03;8.30;99.90
56308;DHT22;42217;50.422;7.210;2023-03-14T10:49:38;8.20;99.90
56308;DHT22;42217;50.422;7.210;2023-03-14T10:54:47;8.10;99.90
56308;DHT22;42217;50.422;7.210;2023-03-14T10:57:13;7.90;99.90
56308;DHT22;42217;50.422;7.210;2023-03-14T10:59:41;7.70;99.90
56308;DHT22;42217;50.422;7.210;2023-03-14T11:07:44;7.60;99.90
56308;DHT22;42217;50.422;7.210;2023-03-14T11:21:16;7.50;99.90
56308;DHT22;42217;50.422;7.210;2023-03-14T11:27:00;7.60;99.90
56308;DHT22;42217;50.422;7.210;2023-03-14T11:29:46;7.80;99.90
56308;DHT22;42217;50.422;7.210;2023-03-14T11:32:24;8.00;99.90
56308;DHT22;42217;50.422;7.210;2023-03-14T11:34:54;8.00;99.90
56308;DHT22;42217;50.422;7.210;2023-03-14T11:37:32;8.10;99.90
56308;DHT22;42217;50.422;7.210;2023-03-14T11:40:18;8.10;99.90
56308;DHT22;42217;50.422;7.210;2023-03-14T11:42:50;8.10;99.90
56308;DHT22;42217;50.422;7.210;2023-03-14T11:45:28;7.80;99.90
56308;DHT22;42217;50.422;7.210;2023-03-14T11:50:44;7.60;99.90
56308;DHT22;42217;50.422;7.210;2023-03-14T11:55:41;7.40;99.90
56308;DHT22;42217;50.422;7.210;2023-03-14T11:58:21;7.50;99.90
56308;DHT22;42217;50.422;7.210;2023-03-14T12:00:51;7.70;99.90
56308;DHT22;42217;50.422;7.210;2023-03-14T12:06:45;8.40;99.90
56308;DHT22;42217;50.422;7.210;2023-03-14T12:09:12;8.60;99.90
56308;DHT22;42217;50.422;7.210;2023-03-14T12:11:40;8.80;99.90
56308;DHT22;42217;50.422;7.210;2023-03-14T12:14:34;8.90;99.90
56308;DHT22;42217;50.422;7.210;2023-03-14T12:17:37;9.10;99.90
56308;DHT22;42217;50.422;7.210;2023-03-14T12:20:05;9.40;99.90
56308;DHT22;42217;50.422;7.210;2023-03-14T12:22:44;8.80;99.90
56308;DHT22;42217;50.422;7.210;2023-03-14T12:25:20;8.40;99.90
56308;DHT22;42217;50.422;7.210;2023-03-14T12:30:38;7.80;99.90
56308;DHT22;42217;50.422;7.210;2023-03-14T12:35:50;6.90;99.90
56308;DHT22;42217;50.422;7.210;2023-03-14T12:43:52;7.00;99.90
56308;DHT22;42217;50.422;7.210;2023-03-14T12:49:08;7.00;99.90
56308;DHT22;42217;50.422;7.210;2023-03-14T12:51:41;6.90;99.90
56308;DHT22;42217;50.422;7.210;2023-03-14T12:59:59;7.00;99.90
56308;DHT22;42217;50.422;7.210;2023-03-14T13:02:43;7.00;99.90
56308;DHT22;42217;50.422;7.210;2023-03-14T13:17:47;6.60;99.90
56308;DHT22;42217;50.422;7.210;2023-03-14T13:20:33;6.20;99.90
56308;DHT22;42217;50.422;7.210;2023-03-14T13:23:00;5.80;99.90
56308;DHT22;42217;50.422;7.210;2023-03-14T13:25:32;5.40;99.90
56308;DHT22;42217;50.422;7.210;2023-03-14T13:27:58;5.20;99.90
56308;DHT22;42217;50.422;7.210;2023-03-14T13:30:27;5.00;99.90
56308;DHT22;42217;50.422;7.210;2023-03-14T13:32:54;4.80;99.90
56308;DHT22;42217;50.422;7.210;2023-03-14T13:35:28;4.70;99.90
56308;DHT22;42217;50.422;7.210;2023-03-14T13:37:59;4.60;99.90
56308;DHT22;42217;50.422;7.210;2023-03-14T13:40:32;4.60;99.90
56308;DHT22;42217;50.422;7.210;2023-03-14T13:43:02;4.40;99.90
56308;DHT22;42217;50.422;7.210;2023-03-14T13:45:28;4.40;99.90
56308;DHT22;42217;50.422;7.210;2023-03-14T13:47:54;4.40;99.90
56308;DHT22;42217;50.422;7.210;2023-03-14T13:50:20;4.40;99.90
56308;DHT22;42217;50.422;7.210;2023-03-14T13:52:45;4.40;99.90
56308;DHT22;42217;50.422;7.210;2023-03-14T13:55:17;4.40;99.90
56308;DHT22;42217;50.422;7.210;2023-03-14T13:57:51;4.40;99.90
56308;DHT22;42217;50.422;7.210;2023-03-14T14:00:29;4.50;99.90
56308;DHT22;42217;50.422;7.210;2023-03-14T14:02:57;4.60;99.90
56308;DHT22;42217;50.422;7.210;2023-03-14T14:05:26;4.60;99.90
56308;DHT22;42217;50.422;7.210;2023-03-14T14:07:53;4.70;99.90
56308;DHT22;42217;50.422;7.210;2023-03-14T14:10:19;4.70;99.90
56308;DHT22;42217;50.422;7.210;2023-03-14T14:12:56;4.80;99.90
56308;DHT22;42217;50.422;7.210;2023-03-14T14:15:33;4.90;99.90
56308;DHT22;42217;50.422;7.210;2023-03-14T14:18:03;4.90;99.90
56308;DHT22;42217;50.422;7.210;2023-03-14T14:20:30;4.90;99.90
56308;DHT22;42217;50.422;7.210;2023-03-14T14:23:04;4.90;99.90
56308;DHT22;42217;50.422;7.210;2023-03-14T14:25:31;5.00;99.90
56308;DHT22;42217;50.422;7.210;2023-03-14T14:27:57;5.00;99.90
56308;DHT22;42217;50.422;7.210;2023-03-14T14:30:28;4.90;99.90
56308;DHT22;42217;50.422;7.210;2023-03-14T14:33:19;5.00;99.90
56308;DHT22;42217;50.422;7.210;2023-03-14T14:35:57;4.90;99.90
56308;DHT22;42217;50.422;7.210;2023-03-14T14:38:24;4.90;99.90
56308;DHT22;42217;50.422;7.210;2023-03-14T14:40:54;4.80;99.90
56308;DHT22;42217;50.422;7.210;2023-03-14T14:43:25;4.90;99.90
56308;DHT22;42217;50.422;7.210;2023-03-14T14:45:53;4.80;99.90
56308;DHT22;42217;50.422;7.210;2023-03-14T14:48:22;4.70;99.90
56308;DHT22;42217;50.422;7.210;2023-03-14T14:51:03;4.60;99.90
56308;DHT22;42217;50.422;7.210;2023-03-14T14:53:44;4.50;99.90
56308;DHT22;42217;50.422;7.210;2023-03-14T14:56:25;4.40;99.90
56308;DHT22;42217;50.422;7.210;2023-03-14T14:58:59;4.30;99.90
56308;DHT22;42217;50.422;7.210;2023-03-14T15:01:36;4.40;99.90
56308;DHT22;42217;50.422;7.210;2023-03-14T15:04:12;4.50;99.90
56308;DHT22;42217;50.422;7.210;2023-03-14T15:06:45;4.50;99.90
56308;DHT22;42217;50.422;7.210;2023-03-14T15:09:12;4.50;99.90
56308;DHT22;42217;50.422;7.210;2023-03-14T15:11:37;4.60;99.90
56308;DHT22;42217;50.422;7.210;2023-03-14T15:14:03;4.60;99.90
56308;DHT22;42217;50.422;7.210;2023-03-14T15:16:30;4.60;99.90
56308;DHT22;42217;50.422;7.210;2023-03-14T15:18:58;4.50;99.90
56308;DHT22;42217;50.422;7.210;2023-03-14T15:21:26;4.50;99.90
56308;DHT22;42217;50.422;7.210;2023-03-14T15:23:52;4.40;99.90
56308;DHT22;42217;50.422;7.210;2023-03-14T15:26:21;4.40;99.90
56308;DHT22;42217;50.422;7.210;2023-03-14T15:28:48;4.40;99.90
56308;DHT22;42217;50.422;7.210;2023-03-14T15:31:14;4.40;99.90
56308;DHT22;42217;50.422;7.210;2023-03-14T15:33:41;4.00;99.90
56308;DHT22;42217;50.422;7.210;2023-03-14T15:36:18;3.40;99.90
56308;DHT22;42217;50.422;7.210;2023-03-14T15:38:44;3.00;99.90
56308;DHT22;42217;50.422;7.210;2023-03-14T15:41:10;2.80;99.90
56308;DHT22;42217;50.422;7.210;2023-03-14T15:43:36;2.70;99.90
56308;DHT22;42217;50.422;7.210;2023-03-14T15:46:01;2.60;99.90
56308;DHT22;42217;50.422;7.210;2023-03-14T15:48:27;2.50;99.90
56308;DHT22;42217;50.422;7.210;2023-03-14T15:50:53;2.50;99.90
56308;DHT22;42217;50.422;7.210;2023-03-14T15:53:19;2.40;99.90
56308;DHT22;42217;50.422;7.210;2023-03-14T15:55:44;2.40;99.90
56308;DHT22;42217;50.422;7.210;2023-03-14T15:58:16;2.30;99.90
56308;DHT22;42217;50.422;7.210;2023-03-14T16:00:42;2.30;99.90
56308;DHT22;42217;50.422;7.210;2023-03-14T16:03:07;2.20;99.90
56308;DHT22;42217;50.422;7.210;2023-03-14T16:05:33;2.10;99.90
56308;DHT22;42217;50.422;7.210;2023-03-14T16:07:59;2.10;99.90
56308;DHT22;42217;50.422;7.210;2023-03-14T16:10:27;2.10;99.90
56308;DHT22;42217;50.422;7.210;2023-03-14T16:12:52;2.10;99.90
56308;DHT22;42217;50.422;7.210;2023-03-14T16:15:18;2.10;99.90
56308;DHT22;42217;50.422;7.210;2023-03-14T16:17:44;2.10;99.90
56308;DHT22;42217;50.422;7.210;2023-03-14T16:20:10;2.00;99.90
56308;DHT22;42217;50.422;7.210;2023-03-14T16:22:36;1.90;99.90
56308;DHT22;42217;50.422;7.210;2023-03-14T16:25:06;1.90;99.90
56308;DHT22;42217;50.422;7.210;2023-03-14T16:27:32;1.80;99.90
56308;DHT22;42217;50.422;7.210;2023-03-14T16:29:58;1.90;99.90
56308;DHT22;42217;50.422;7.210;2023-03-14T16:32:25;2.00;99.90
56308;DHT22;42217;50.422;7.210;2023-03-14T16:34:51;2.10;99.90
56308;DHT22;42217;50.422;7.210;2023-03-14T16:37:17;2.20;99.90
56308;DHT22;42217;50.422;7.210;2023-03-14T16:39:42;2.20;99.90
56308;DHT22;42217;50.422;7.210;2023-03-14T16:42:08;2.30;99.90
56308;DHT22;42217;50.422;7.210;2023-03-14T16:44:34;2.40;99.90
56308;DHT22;42217;50.422;7.210;2023-03-14T16:46:59;2.50;99.90
56308;DHT22;42217;50.422;7.210;2023-03-14T16:49:25;2.60;99.90
56308;DHT22;42217;50.422;7.210;2023-03-14T16:51:51;2.60;99.90
56308;DHT22;42217;50.422;7.210;2023-03-14T16:54:16;2.70;99.90
56308;DHT22;42217;50.422;7.210;2023-03-14T16:56:47;2.70;99.90
56308;DHT22;42217;50.422;7.210;2023-03-14T16:59:14;2.70;99.90
56308;DHT22;42217;50.422;7.210;2023-03-14T17:01:40;2.70;99.90
56308;DHT22;42217;50.422;7.210;2023-03-14T17:04:07;2.80;99.90
56308;DHT22;42217;50.422;7.210;2023-03-14T17:06:34;2.80;99.90
56308;DHT22;42217;50.422;7.210;2023-03-14T17:09:00;2.90;99.90
56308;DHT22;42217;50.422;7.210;2023-03-14T17:11:29;2.90;99.90